Time;durP1;ratioP1;P1;durP2;ratioP2;P2;SDS_P1;SDS_P2;PMS_P1;PMS_P2;Temp;Humidity;BMP_temperature;BMP_pressure;BME280_temperature;BME280_humidity;BME280_pressure;Samples;Min_cycle;Max_cycle;Signal;HPM_P1;HPM_P2
2022/04/06 00:00:15;;;;;;;;;;;9.50;95.60;;;;;;2102241;28;20015;-93
2022/04/06 00:01:35;;;;;;;;;;;9.50;95.60;;;;;;2100189;28;19916;-93
2022/04/06 00:02:54;;;;;;;;;;;9.50;95.50;;;;;;2095892;28;19980;-94
2022/04/06 00:04:14;;;;;;;;;;;9.50;95.60;;;;;;2092253;28;19916;-94
2022/04/06 00:05:33;;;;;;;;;;;9.50;95.60;;;;;;2086681;28;20333;-92
2022/04/06 00:06:53;;;;;;;;;;;9.50;95.60;;;;;;2091014;28;19913;-94
2022/04/06 00:08:12;;;;;;;;;;;9.50;95.60;;;;;;2086320;28;20305;-93
2022/04/06 00:09:31;;;;;;;;;;;9.50;95.60;;;;;;2082374;28;19921;-95
2022/04/06 00:10:51;;;;;;;;;;;9.50;95.60;;;;;;2095719;28;19917;-93
2022/04/06 00:12:10;;;;;;;;;;;9.50;95.60;;;;;;2103526;28;19912;-93
2022/04/06 00:13:29;;;;;;;;;;;9.50;95.60;;;;;;2103936;28;19916;-93
2022/04/06 00:14:48;;;;;;;;;;;9.50;95.60;;;;;;2101509;28;19916;-94
2022/04/06 00:16:07;;;;;;;;;;;9.50;95.60;;;;;;2101534;28;19917;-94
2022/04/06 00:17:27;;;;;;;;;;;9.50;95.60;;;;;;2101552;28;19924;-93
2022/04/06 00:18:46;;;;;;;;;;;9.50;95.60;;;;;;2103384;28;20344;-93
2022/04/06 00:20:06;;;;;;;;;;;9.50;95.60;;;;;;2108003;28;19927;-93
2022/04/06 00:21:27;;;;;;;;;;;9.50;95.60;;;;;;2088677;28;19920;-92
2022/04/06 00:22:46;;;;;;;;;;;9.50;95.60;;;;;;2092818;28;19935;-93
2022/04/06 00:24:06;;;;;;;;;;;9.50;95.60;;;;;;2100855;28;19917;-93
2022/04/06 00:25:26;;;;;;;;;;;9.50;95.60;;;;;;2100700;28;19995;-94
2022/04/06 00:26:45;;;;;;;;;;;9.50;95.60;;;;;;2107086;28;19916;-93
2022/04/06 00:28:04;;;;;;;;;;;9.50;95.60;;;;;;2107523;28;19912;-94
2022/04/06 00:29:23;;;;;;;;;;;9.50;95.60;;;;;;2100473;28;20359;-94
2022/04/06 00:30:42;;;;;;;;;;;9.50;95.60;;;;;;2100942;28;19913;-93
2022/04/06 00:32:02;;;;;;;;;;;9.50;95.80;;;;;;2103209;28;19916;-94
2022/04/06 00:33:21;;;;;;;;;;;9.50;95.60;;;;;;2103674;28;19912;-93
2022/04/06 00:36:17;;;;;;;;;;;9.50;95.60;;;;;;2100272;28;19913;-92
2022/04/06 00:37:37;;;;;;;;;;;9.50;95.60;;;;;;2091376;28;19917;-93
2022/04/06 00:38:56;;;;;;;;;;;9.50;95.60;;;;;;2101884;28;20006;-93
2022/04/06 00:40:17;;;;;;;;;;;9.50;95.60;;;;;;2091510;28;19921;-94
2022/04/06 00:41:38;;;;;;;;;;;9.50;95.60;;;;;;2103828;28;19912;-93
2022/04/06 00:43:00;;;;;;;;;;;9.50;95.60;;;;;;2091527;28;19913;-93
2022/04/06 00:44:19;;;;;;;;;;;9.50;95.60;;;;;;2096452;28;19917;-93
2022/04/06 00:45:39;;;;;;;;;;;9.50;95.60;;;;;;2097002;28;19916;-93
2022/04/06 00:46:58;;;;;;;;;;;9.50;95.50;;;;;;2099990;28;19999;-94
2022/04/06 00:48:17;;;;;;;;;;;9.50;95.50;;;;;;2100174;28;19916;-94
2022/04/06 00:49:37;;;;;;;;;;;9.50;95.50;;;;;;2107032;28;19912;-93
2022/04/06 00:50:56;;;;;;;;;;;9.50;95.50;;;;;;2108762;28;19954;-93
2022/04/06 00:52:16;;;;;;;;;;;9.50;95.50;;;;;;2092083;28;19947;-92
2022/04/06 00:53:36;;;;;;;;;;;9.50;95.50;;;;;;2099101;28;19913;-93
2022/04/06 00:54:56;;;;;;;;;;;9.50;95.50;;;;;;2100396;28;20342;-94
2022/04/06 00:56:15;;;;;;;;;;;9.50;95.50;;;;;;2099833;28;19916;-92
2022/04/06 00:57:34;;;;;;;;;;;9.50;95.50;;;;;;2100010;28;19920;-95
2022/04/06 00:58:53;;;;;;;;;;;9.50;95.50;;;;;;2104245;28;19897;-95
2022/04/06 01:00:13;;;;;;;;;;;9.50;95.50;;;;;;2111436;28;19904;-93
2022/04/06 01:01:32;;;;;;;;;;;9.50;95.50;;;;;;2099934;28;19917;-91
2022/04/06 01:02:52;;;;;;;;;;;9.50;95.50;;;;;;2100889;28;19901;-89
2022/04/06 01:04:11;;;;;;;;;;;9.50;95.50;;;;;;2103239;28;19917;-92
2022/04/06 01:05:31;;;;;;;;;;;9.50;95.50;;;;;;2100203;28;19917;-93
2022/04/06 01:06:51;;;;;;;;;;;9.50;95.50;;;;;;2108599;28;19948;-93
2022/04/06 01:08:11;;;;;;;;;;;9.50;95.50;;;;;;2099662;28;19908;-92
2022/04/06 01:09:30;;;;;;;;;;;9.50;95.50;;;;;;2102193;28;19916;-93
2022/04/06 01:10:49;;;;;;;;;;;9.50;95.50;;;;;;2100352;28;19912;-93
2022/04/06 01:12:09;;;;;;;;;;;9.50;95.50;;;;;;2102417;28;20110;-92
2022/04/06 01:13:28;;;;;;;;;;;9.50;95.50;;;;;;2083365;28;19913;-94
2022/04/06 01:14:47;;;;;;;;;;;9.50;95.50;;;;;;2094771;28;20003;-92
2022/04/06 01:16:06;;;;;;;;;;;9.50;95.50;;;;;;2103812;28;19916;-92
2022/04/06 01:17:31;;;;;;;;;;;9.50;95.50;;;;;;2095188;28;19921;-93
2022/04/06 01:18:50;;;;;;;;;;;9.50;95.50;;;;;;2105817;28;19920;-92
2022/04/06 01:20:10;;;;;;;;;;;9.50;95.50;;;;;;2104171;28;19961;-92
2022/04/06 01:21:29;;;;;;;;;;;9.50;95.50;;;;;;2092991;28;19916;-93
2022/04/06 01:22:48;;;;;;;;;;;9.50;95.60;;;;;;2096637;28;19952;-93
2022/04/06 01:24:07;;;;;;;;;;;9.50;95.50;;;;;;2099892;28;20303;-92
2022/04/06 01:25:27;;;;;;;;;;;9.50;95.50;;;;;;2100404;28;19912;-92
2022/04/06 01:26:46;;;;;;;;;;;9.40;95.50;;;;;;2090380;28;19917;-93
2022/04/06 01:28:06;;;;;;;;;;;9.50;95.50;;;;;;2084321;28;19963;-93
2022/04/06 01:29:26;;;;;;;;;;;9.40;95.50;;;;;;2096302;28;19917;-93
2022/04/06 01:30:45;;;;;;;;;;;9.40;95.50;;;;;;2089743;28;19917;-93
2022/04/06 01:32:11;;;;;;;;;;;9.50;95.50;;;;;;2086161;28;19913;-93
2022/04/06 01:33:31;;;;;;;;;;;9.40;95.50;;;;;;2093412;28;19913;-92
2022/04/06 01:34:51;;;;;;;;;;;9.50;95.50;;;;;;2088425;28;19917;-93
2022/04/06 01:36:10;;;;;;;;;;;9.50;95.50;;;;;;2102264;28;19917;-92
2022/04/06 01:37:30;;;;;;;;;;;9.40;95.50;;;;;;2105186;28;19952;-92
2022/04/06 01:38:50;;;;;;;;;;;9.40;95.50;;;;;;2089338;28;19916;-94
2022/04/06 01:40:09;;;;;;;;;;;9.50;95.50;;;;;;2103448;28;19920;-92
2022/04/06 01:41:33;;;;;;;;;;;9.40;95.50;;;;;;2112001;28;19916;-92
2022/04/06 01:42:52;;;;;;;;;;;9.40;95.50;;;;;;2100124;28;19916;-93
2022/04/06 01:44:11;;;;;;;;;;;9.40;95.50;;;;;;2100688;28;19913;-91
2022/04/06 01:45:30;;;;;;;;;;;9.40;95.50;;;;;;2100326;28;20366;-93
2022/04/06 01:46:49;;;;;;;;;;;9.40;95.50;;;;;;2100879;28;19968;-92
2022/04/06 01:48:08;;;;;;;;;;;9.50;95.50;;;;;;2101556;28;19913;-94
2022/04/06 01:52:44;;;;;;;;;;;9.50;95.50;;;;;;2102670;28;19916;-92
2022/04/06 01:54:03;;;;;;;;;;;9.40;95.50;;;;;;2099447;28;19916;-93
2022/04/06 01:55:22;;;;;;;;;;;9.40;95.50;;;;;;2089539;28;19932;-94
2022/04/06 01:56:41;;;;;;;;;;;9.40;95.50;;;;;;2087793;28;19912;-93
2022/04/06 01:58:00;;;;;;;;;;;9.40;95.50;;;;;;2096331;28;19978;-93
2022/04/06 01:59:20;;;;;;;;;;;9.40;95.50;;;;;;2099824;28;19913;-93
2022/04/06 02:00:40;;;;;;;;;;;9.40;95.50;;;;;;2101437;28;20020;-94
2022/04/06 02:01:59;;;;;;;;;;;9.50;95.40;;;;;;2100209;28;19917;-93
2022/04/06 02:03:18;;;;;;;;;;;9.50;95.40;;;;;;2092781;28;19909;-93
2022/04/06 02:04:38;;;;;;;;;;;9.50;95.40;;;;;;2087826;28;19917;-94
2022/04/06 02:05:58;;;;;;;;;;;9.40;95.50;;;;;;2079754;28;19914;-93
2022/04/06 02:07:17;;;;;;;;;;;9.40;95.40;;;;;;2079609;28;19913;-92
2022/04/06 02:08:37;;;;;;;;;;;9.40;95.50;;;;;;2087731;28;19912;-93
2022/04/06 02:09:59;;;;;;;;;;;9.40;95.40;;;;;;2096441;28;19999;-93
2022/04/06 02:11:18;;;;;;;;;;;9.40;95.40;;;;;;2095531;28;19916;-93
2022/04/06 02:12:38;;;;;;;;;;;9.40;95.40;;;;;;2093757;28;20270;-92
2022/04/06 02:13:57;;;;;;;;;;;9.40;95.40;;;;;;2101574;28;19920;-93
2022/04/06 02:15:17;;;;;;;;;;;9.40;95.50;;;;;;2099777;28;19916;-93
2022/04/06 02:16:37;;;;;;;;;;;9.40;95.50;;;;;;2096716;28;19946;-93
2022/04/06 02:17:56;;;;;;;;;;;9.40;95.40;;;;;;2099846;28;19921;-92
2022/04/06 02:19:16;;;;;;;;;;;9.40;95.40;;;;;;2090844;28;19909;-94
2022/04/06 02:20:35;;;;;;;;;;;9.40;95.40;;;;;;2087782;28;20442;-92
2022/04/06 02:21:54;;;;;;;;;;;9.40;95.40;;;;;;2098933;28;19924;-93
2022/04/06 02:23:13;;;;;;;;;;;9.40;95.40;;;;;;2108244;28;19912;-93
2022/04/06 02:24:33;;;;;;;;;;;9.40;95.50;;;;;;2108081;28;19916;-93
2022/04/06 02:25:52;;;;;;;;;;;9.40;95.40;;;;;;2108279;28;19908;-93
2022/04/06 02:27:11;;;;;;;;;;;9.40;95.40;;;;;;2108037;28;19912;-93
2022/04/06 02:28:30;;;;;;;;;;;9.40;95.40;;;;;;2106827;28;19920;-94
2022/04/06 02:29:49;;;;;;;;;;;9.40;95.40;;;;;;2099174;28;19916;-93
2022/04/06 02:31:08;;;;;;;;;;;9.40;95.40;;;;;;2093826;28;19916;-93
2022/04/06 02:32:27;;;;;;;;;;;9.40;95.40;;;;;;2097180;28;19960;-94
2022/04/06 02:33:47;;;;;;;;;;;9.40;95.40;;;;;;2099486;28;19917;-93
2022/04/06 02:35:06;;;;;;;;;;;9.40;95.50;;;;;;2096523;28;19920;-93
2022/04/06 02:36:25;;;;;;;;;;;9.40;95.40;;;;;;2095060;28;20449;-94
2022/04/06 02:37:45;;;;;;;;;;;9.40;95.50;;;;;;2090165;28;20372;-93
2022/04/06 02:39:04;;;;;;;;;;;9.30;95.40;;;;;;2100402;28;20354;-93
2022/04/06 02:40:23;;;;;;;;;;;9.30;95.40;;;;;;2102924;28;20465;-92
2022/04/06 02:41:43;;;;;;;;;;;9.30;95.50;;;;;;2105969;28;19916;-93
2022/04/06 02:43:02;;;;;;;;;;;9.40;95.50;;;;;;2100455;28;19917;-95
2022/04/06 02:44:21;;;;;;;;;;;9.30;95.40;;;;;;2107845;28;19994;-92
2022/04/06 02:45:40;;;;;;;;;;;9.30;95.40;;;;;;2106200;28;19916;-94
2022/04/06 02:46:59;;;;;;;;;;;9.30;95.40;;;;;;2109685;28;19987;-93
2022/04/06 02:48:19;;;;;;;;;;;9.40;95.40;;;;;;2099039;28;19912;-93
2022/04/06 02:49:38;;;;;;;;;;;9.30;95.40;;;;;;2095496;28;20382;-93
2022/04/06 02:50:57;;;;;;;;;;;9.30;95.40;;;;;;2099883;28;19916;-95
2022/04/06 02:52:17;;;;;;;;;;;9.30;95.40;;;;;;2105475;28;19912;-94
2022/04/06 02:53:36;;;;;;;;;;;9.30;95.40;;;;;;2106543;28;19908;-92
2022/04/06 02:54:55;;;;;;;;;;;9.30;95.40;;;;;;2098219;28;20019;-93
2022/04/06 02:56:15;;;;;;;;;;;9.30;95.40;;;;;;2096776;28;19909;-93
2022/04/06 02:57:34;;;;;;;;;;;9.30;95.40;;;;;;2100313;28;19940;-92
2022/04/06 02:58:53;;;;;;;;;;;9.30;95.40;;;;;;2099525;28;19917;-94
2022/04/06 03:00:13;;;;;;;;;;;9.30;95.40;;;;;;2091936;28;19917;-94
2022/04/06 03:01:32;;;;;;;;;;;9.30;95.40;;;;;;2103748;28;20302;-93
2022/04/06 03:02:51;;;;;;;;;;;9.30;95.40;;;;;;2091324;28;20011;-95
2022/04/06 03:04:11;;;;;;;;;;;9.30;95.40;;;;;;2095964;28;19962;-94
2022/04/06 03:05:30;;;;;;;;;;;9.20;95.40;;;;;;2090828;28;19913;-93
2022/04/06 03:06:49;;;;;;;;;;;9.30;95.40;;;;;;2095986;28;20342;-92
2022/04/06 03:08:09;;;;;;;;;;;9.30;95.40;;;;;;2099630;28;19999;-93
2022/04/06 03:09:28;;;;;;;;;;;9.30;95.40;;;;;;2090778;28;19916;-93
2022/04/06 03:10:48;;;;;;;;;;;9.20;95.30;;;;;;2088839;28;19994;-93
2022/04/06 03:12:07;;;;;;;;;;;9.20;95.30;;;;;;2100341;28;19916;-93
2022/04/06 03:13:26;;;;;;;;;;;9.20;95.30;;;;;;2102541;28;19913;-93
2022/04/06 03:14:45;;;;;;;;;;;9.30;95.30;;;;;;2105885;28;19916;-93
2022/04/06 03:16:05;;;;;;;;;;;9.20;95.30;;;;;;2112184;28;19900;-91
2022/04/06 03:17:24;;;;;;;;;;;9.20;95.30;;;;;;2095059;28;19925;-93
2022/04/06 03:18:43;;;;;;;;;;;9.20;95.30;;;;;;2096061;28;19924;-92
2022/04/06 03:20:04;;;;;;;;;;;9.20;95.30;;;;;;2092794;28;19917;-94
2022/04/06 03:21:23;;;;;;;;;;;9.20;95.30;;;;;;2094777;28;19952;-93
2022/04/06 03:22:42;;;;;;;;;;;9.20;95.30;;;;;;2109103;28;19972;-92
2022/04/06 03:24:02;;;;;;;;;;;9.20;95.20;;;;;;2117122;28;19896;-92
2022/04/06 03:25:21;;;;;;;;;;;9.20;95.20;;;;;;2104999;28;19916;-93
2022/04/06 03:26:40;;;;;;;;;;;9.20;95.20;;;;;;2093057;28;20011;-93
2022/04/06 03:28:01;;;;;;;;;;;9.20;95.20;;;;;;2104695;28;19912;-92
2022/04/06 03:29:19;;;;;;;;;;;9.20;95.20;;;;;;2108030;28;19912;-93
2022/04/06 03:30:40;;;;;;;;;;;9.20;95.20;;;;;;2093547;28;19917;-93
2022/04/06 03:31:58;;;;;;;;;;;9.20;95.20;;;;;;2098583;28;20010;-92
2022/04/06 03:33:17;;;;;;;;;;;9.20;95.20;;;;;;2102276;28;19988;-93
2022/04/06 03:34:37;;;;;;;;;;;9.20;95.20;;;;;;2099773;28;19916;-93
2022/04/06 03:35:56;;;;;;;;;;;9.20;95.10;;;;;;2106206;28;20274;-92
2022/04/06 03:37:16;;;;;;;;;;;9.20;95.10;;;;;;2104500;28;19908;-92
2022/04/06 03:38:35;;;;;;;;;;;9.20;95.10;;;;;;2105044;28;19916;-93
2022/04/06 03:39:54;;;;;;;;;;;9.10;95.10;;;;;;2108308;28;20169;-94
2022/04/06 03:41:14;;;;;;;;;;;9.20;95.10;;;;;;2106573;28;19916;-93
2022/04/06 03:42:33;;;;;;;;;;;9.20;95.10;;;;;;2103080;28;19995;-94
2022/04/06 03:43:53;;;;;;;;;;;9.10;95.10;;;;;;2103315;28;19948;-93
2022/04/06 03:45:12;;;;;;;;;;;9.10;95.10;;;;;;2100435;28;19917;-94
2022/04/06 03:46:31;;;;;;;;;;;9.10;95.10;;;;;;2107633;28;20006;-94
2022/04/06 03:47:51;;;;;;;;;;;9.10;95.10;;;;;;2107520;28;20366;-93
2022/04/06 03:49:10;;;;;;;;;;;9.10;95.10;;;;;;2107965;28;19912;-94
2022/04/06 03:50:29;;;;;;;;;;;9.10;95.10;;;;;;2093261;28;19916;-93
2022/04/06 03:51:48;;;;;;;;;;;9.10;95.10;;;;;;2102651;28;19912;-92
2022/04/06 03:53:07;;;;;;;;;;;9.10;95.10;;;;;;2100864;28;19917;-93
2022/04/06 03:54:27;;;;;;;;;;;9.10;95.10;;;;;;2095593;28;19925;-93
2022/04/06 03:55:46;;;;;;;;;;;9.10;95.00;;;;;;2101906;28;20410;-94
2022/04/06 03:57:06;;;;;;;;;;;9.00;95.00;;;;;;2108739;28;19908;-93
2022/04/06 03:58:25;;;;;;;;;;;9.00;95.00;;;;;;2100831;28;19912;-95
2022/04/06 03:59:44;;;;;;;;;;;9.00;95.00;;;;;;2104089;28;19916;-93
2022/04/06 04:01:05;;;;;;;;;;;9.00;95.00;;;;;;2107378;28;19916;-93
2022/04/06 04:02:24;;;;;;;;;;;9.00;95.00;;;;;;2105852;28;19920;-93
2022/04/06 04:03:43;;;;;;;;;;;9.00;95.00;;;;;;2091839;28;20003;-93
2022/04/06 04:05:03;;;;;;;;;;;9.00;95.00;;;;;;2099434;28;19947;-94
2022/04/06 04:06:22;;;;;;;;;;;9.00;94.90;;;;;;2109015;28;19912;-92
2022/04/06 04:07:43;;;;;;;;;;;9.00;95.00;;;;;;2100249;28;19913;-93
2022/04/06 04:09:03;;;;;;;;;;;9.00;94.90;;;;;;2102448;28;19944;-94
2022/04/06 04:10:22;;;;;;;;;;;9.00;95.00;;;;;;2097619;28;19917;-91
2022/04/06 04:11:42;;;;;;;;;;;8.90;94.90;;;;;;2102981;28;20007;-91
2022/04/06 04:13:02;;;;;;;;;;;8.90;94.90;;;;;;2097105;28;19988;-90
2022/04/06 04:14:21;;;;;;;;;;;8.90;94.90;;;;;;2100524;28;19916;-92
2022/04/06 04:15:40;;;;;;;;;;;8.90;94.90;;;;;;2101022;28;19920;-92
2022/04/06 04:17:00;;;;;;;;;;;8.90;94.90;;;;;;2105315;28;19916;-91
2022/04/06 04:18:19;;;;;;;;;;;8.90;94.90;;;;;;2108655;28;19928;-93
2022/04/06 04:19:38;;;;;;;;;;;8.90;94.90;;;;;;2106750;28;20278;-92
2022/04/06 04:22:36;;;;;;;;;;;8.90;94.90;;;;;;2099906;28;19932;-93
2022/04/06 04:23:55;;;;;;;;;;;8.90;94.90;;;;;;2102170;28;19912;-93
2022/04/06 04:25:14;;;;;;;;;;;8.90;94.90;;;;;;2097735;28;20410;-91
2022/04/06 04:26:36;;;;;;;;;;;8.90;94.90;;;;;;2095784;28;20294;-91
2022/04/06 04:27:55;;;;;;;;;;;8.90;94.90;;;;;;2084159;28;19980;-92
2022/04/06 04:29:14;;;;;;;;;;;8.90;94.90;;;;;;2088769;28;19912;-90
2022/04/06 04:30:33;;;;;;;;;;;8.90;94.80;;;;;;2088410;28;20003;-92
2022/04/06 04:31:53;;;;;;;;;;;8.90;94.90;;;;;;2088624;28;19912;-92
2022/04/06 04:33:12;;;;;;;;;;;8.90;94.80;;;;;;2083479;28;20371;-91
2022/04/06 04:34:31;;;;;;;;;;;8.90;94.80;;;;;;2081476;28;19917;-91
2022/04/06 04:35:50;;;;;;;;;;;8.90;94.80;;;;;;2096803;28;19959;-93
2022/04/06 04:37:09;;;;;;;;;;;8.90;94.80;;;;;;2102194;28;19924;-91
2022/04/06 04:38:29;;;;;;;;;;;8.90;94.80;;;;;;2090725;28;19913;-92
2022/04/06 04:39:48;;;;;;;;;;;8.90;94.80;;;;;;2088206;28;19917;-90
2022/04/06 04:41:07;;;;;;;;;;;8.90;94.90;;;;;;2087007;28;19917;-89
2022/04/06 04:42:27;;;;;;;;;;;8.90;94.90;;;;;;2088869;28;19909;-93
2022/04/06 04:43:46;;;;;;;;;;;8.90;94.80;;;;;;2091412;28;19917;-93
2022/04/06 04:45:06;;;;;;;;;;;8.90;94.90;;;;;;2083372;28;19953;-92
2022/04/06 04:46:26;;;;;;;;;;;8.90;94.90;;;;;;2080318;28;19917;-93
2022/04/06 04:47:45;;;;;;;;;;;8.90;94.90;;;;;;2085240;28;19916;-91
2022/04/06 04:49:04;;;;;;;;;;;8.90;94.80;;;;;;2088277;28;19913;-88
2022/04/06 04:50:23;;;;;;;;;;;8.80;94.80;;;;;;2104324;28;19916;-91
2022/04/06 04:51:42;;;;;;;;;;;8.90;94.80;;;;;;2095305;28;19921;-93
2022/04/06 04:53:02;;;;;;;;;;;8.90;94.80;;;;;;2094856;28;19917;-92
2022/04/06 04:54:24;;;;;;;;;;;8.90;94.80;;;;;;2104062;28;19908;-91
2022/04/06 04:55:43;;;;;;;;;;;8.90;94.80;;;;;;2108745;28;19912;-92
2022/04/06 04:57:03;;;;;;;;;;;8.80;94.80;;;;;;2108870;28;20365;-90
2022/04/06 04:58:22;;;;;;;;;;;8.90;94.80;;;;;;2094798;28;19908;-92
2022/04/06 04:59:41;;;;;;;;;;;8.90;94.80;;;;;;2103144;28;19936;-91
2022/04/06 05:01:01;;;;;;;;;;;8.90;94.80;;;;;;2090510;28;19917;-91
2022/04/06 05:02:20;;;;;;;;;;;8.80;94.80;;;;;;2090187;28;19916;-90
2022/04/06 05:03:39;;;;;;;;;;;8.90;94.80;;;;;;2095720;28;19913;-90
2022/04/06 05:04:58;;;;;;;;;;;8.90;94.80;;;;;;2088116;28;19956;-90
2022/04/06 05:06:17;;;;;;;;;;;8.80;94.80;;;;;;2088222;28;19913;-91
2022/04/06 05:07:40;;;;;;;;;;;8.80;94.70;;;;;;2098431;28;19913;-90
2022/04/06 05:08:59;;;;;;;;;;;8.90;94.70;;;;;;2107291;28;19912;-90
2022/04/06 05:10:19;;;;;;;;;;;8.80;94.70;;;;;;2107593;28;19917;-92
2022/04/06 05:11:38;;;;;;;;;;;8.90;94.70;;;;;;2103760;28;19913;-89
2022/04/06 05:12:57;;;;;;;;;;;8.90;94.60;;;;;;2096461;28;19920;-90
2022/04/06 05:14:16;;;;;;;;;;;8.90;94.60;;;;;;2084754;28;19913;-90
2022/04/06 05:15:36;;;;;;;;;;;8.90;94.60;;;;;;2081834;28;19972;-91
2022/04/06 05:16:55;;;;;;;;;;;8.80;94.60;;;;;;2080630;28;19913;-89
2022/04/06 05:18:14;;;;;;;;;;;8.90;94.60;;;;;;2081018;28;19932;-90
2022/04/06 05:19:34;;;;;;;;;;;8.90;94.60;;;;;;2090500;28;20306;-89
2022/04/06 05:20:53;;;;;;;;;;;8.90;94.60;;;;;;2088110;28;19917;-91
2022/04/06 05:22:12;;;;;;;;;;;8.90;94.60;;;;;;2095998;28;19917;-92
2022/04/06 05:23:31;;;;;;;;;;;8.90;94.50;;;;;;2106925;28;19909;-90
2022/04/06 05:24:50;;;;;;;;;;;8.90;94.50;;;;;;2098903;28;19912;-91
2022/04/06 05:26:10;;;;;;;;;;;8.90;94.50;;;;;;2101117;28;19917;-92
2022/04/06 05:27:32;;;;;;;;;;;8.90;94.60;;;;;;2102019;28;20393;-92
2022/04/06 05:28:51;;;;;;;;;;;8.90;94.50;;;;;;2104165;28;19917;-92
2022/04/06 05:30:14;;;;;;;;;;;8.90;94.50;;;;;;2096825;28;19920;-91
2022/04/06 05:31:33;;;;;;;;;;;8.90;94.50;;;;;;2105040;28;19924;-92
2022/04/06 05:32:54;;;;;;;;;;;8.90;94.40;;;;;;2091252;28;19913;-91
2022/04/06 05:34:13;;;;;;;;;;;8.90;94.40;;;;;;2094471;28;19908;-92
2022/04/06 05:35:32;;;;;;;;;;;8.90;94.40;;;;;;2099572;28;19917;-91
2022/04/06 05:36:51;;;;;;;;;;;8.90;94.40;;;;;;2084216;28;19917;-93
2022/04/06 05:38:11;;;;;;;;;;;8.90;94.40;;;;;;2096565;28;19917;-92
2022/04/06 05:39:30;;;;;;;;;;;8.90;94.40;;;;;;2095762;28;19964;-92
2022/04/06 05:40:49;;;;;;;;;;;8.90;94.40;;;;;;2093770;28;19929;-90
2022/04/06 05:42:09;;;;;;;;;;;8.90;94.40;;;;;;2092374;28;19917;-90
2022/04/06 05:43:28;;;;;;;;;;;8.90;94.40;;;;;;2091366;28;20399;-92
2022/04/06 05:44:47;;;;;;;;;;;8.90;94.40;;;;;;2101132;28;19913;-92
2022/04/06 05:46:06;;;;;;;;;;;8.90;94.40;;;;;;2103375;28;19917;-91
2022/04/06 05:47:26;;;;;;;;;;;8.90;94.40;;;;;;2096778;28;19916;-92
2022/04/06 05:48:45;;;;;;;;;;;8.90;94.40;;;;;;2096021;28;19909;-92
2022/04/06 05:50:05;;;;;;;;;;;8.90;94.40;;;;;;2100269;28;19916;-92
2022/04/06 05:51:25;;;;;;;;;;;8.90;94.40;;;;;;2100694;28;20278;-93
2022/04/06 05:52:44;;;;;;;;;;;8.90;94.40;;;;;;2099138;28;20395;-91
2022/04/06 05:54:03;;;;;;;;;;;8.90;94.30;;;;;;2091749;28;19908;-92
2022/04/06 05:55:22;;;;;;;;;;;8.90;94.30;;;;;;2092598;28;20367;-91
2022/04/06 05:56:42;;;;;;;;;;;8.90;94.30;;;;;;2092993;28;20422;-91
2022/04/06 05:58:01;;;;;;;;;;;9.00;94.30;;;;;;2088070;28;19921;-92
2022/04/06 05:59:20;;;;;;;;;;;8.90;94.30;;;;;;2096579;28;20071;-92
2022/04/06 06:00:39;;;;;;;;;;;8.90;94.20;;;;;;2083342;28;19921;-91
2022/04/06 06:01:58;;;;;;;;;;;9.00;94.20;;;;;;2088208;28;19913;-92
2022/04/06 06:03:17;;;;;;;;;;;9.00;94.20;;;;;;2091131;28;19909;-92
2022/04/06 06:04:38;;;;;;;;;;;9.00;94.20;;;;;;2105255;28;19912;-90
2022/04/06 06:05:57;;;;;;;;;;;9.00;94.20;;;;;;2093820;28;19925;-91
2022/04/06 06:07:18;;;;;;;;;;;9.00;94.20;;;;;;2091076;28;19913;-91
2022/04/06 06:08:37;;;;;;;;;;;9.00;94.20;;;;;;2101080;28;19912;-91
2022/04/06 06:09:56;;;;;;;;;;;9.00;94.20;;;;;;2107541;28;20289;-91
2022/04/06 06:11:15;;;;;;;;;;;9.00;94.20;;;;;;2101549;28;19909;-92
2022/04/06 06:12:36;;;;;;;;;;;9.00;94.20;;;;;;2094383;28;19956;-91
2022/04/06 06:13:55;;;;;;;;;;;9.00;94.10;;;;;;2091669;28;19917;-91
2022/04/06 06:15:15;;;;;;;;;;;9.00;94.10;;;;;;2091974;28;19924;-92
2022/04/06 06:16:34;;;;;;;;;;;9.10;94.20;;;;;;2100019;28;19920;-90
2022/04/06 06:17:54;;;;;;;;;;;9.00;94.10;;;;;;2104505;28;20278;-92
2022/04/06 06:19:13;;;;;;;;;;;9.10;94.10;;;;;;2108397;28;19916;-91
2022/04/06 06:20:32;;;;;;;;;;;9.10;94.10;;;;;;2099826;28;19920;-92
2022/04/06 06:21:51;;;;;;;;;;;9.10;94.00;;;;;;2099943;28;20374;-90
2022/04/06 06:23:11;;;;;;;;;;;9.10;94.00;;;;;;2097597;28;19916;-92
2022/04/06 06:24:30;;;;;;;;;;;9.10;94.00;;;;;;2092278;28;20000;-93
2022/04/06 06:25:49;;;;;;;;;;;9.10;94.00;;;;;;2087190;28;19916;-91
2022/04/06 06:27:08;;;;;;;;;;;9.10;94.00;;;;;;2100330;28;19916;-91
2022/04/06 06:28:28;;;;;;;;;;;9.10;94.00;;;;;;2104861;28;19916;-91
2022/04/06 06:29:48;;;;;;;;;;;9.10;93.90;;;;;;2100199;28;19917;-91
2022/04/06 06:31:07;;;;;;;;;;;9.10;93.90;;;;;;2098029;28;20294;-91
2022/04/06 06:32:26;;;;;;;;;;;9.10;93.90;;;;;;2084094;28;19928;-91
2022/04/06 06:33:47;;;;;;;;;;;9.20;93.90;;;;;;2093558;28;19912;-92
2022/04/06 06:35:08;;;;;;;;;;;9.20;93.90;;;;;;2086306;28;20383;-92
2022/04/06 06:36:27;;;;;;;;;;;9.20;93.90;;;;;;2090339;28;19916;-91
2022/04/06 06:37:52;;;;;;;;;;;9.20;93.90;;;;;;2100549;28;19924;-92
2022/04/06 06:39:11;;;;;;;;;;;9.20;93.90;;;;;;2101952;28;19912;-92
2022/04/06 06:40:30;;;;;;;;;;;9.20;93.80;;;;;;2099215;28;19920;-93
2022/04/06 06:41:49;;;;;;;;;;;9.30;93.80;;;;;;2103563;28;20456;-92
2022/04/06 06:43:09;;;;;;;;;;;9.20;93.80;;;;;;2094382;28;19924;-91
2022/04/06 06:44:28;;;;;;;;;;;9.20;93.80;;;;;;2088687;28;19917;-92
2022/04/06 06:45:47;;;;;;;;;;;9.30;93.80;;;;;;2090238;28;19917;-91
2022/04/06 06:47:06;;;;;;;;;;;9.20;93.80;;;;;;2102846;28;19916;-92
2022/04/06 06:48:26;;;;;;;;;;;9.20;93.70;;;;;;2100728;28;20011;-91
2022/04/06 06:49:46;;;;;;;;;;;9.30;93.80;;;;;;2101017;28;20278;-90
2022/04/06 06:51:06;;;;;;;;;;;9.30;93.80;;;;;;2102864;28;19912;-91
2022/04/06 06:52:25;;;;;;;;;;;9.30;93.80;;;;;;2091262;28;19921;-91
2022/04/06 06:53:46;;;;;;;;;;;9.30;93.80;;;;;;2087659;28;20295;-91
2022/04/06 06:55:05;;;;;;;;;;;9.30;93.70;;;;;;2090350;28;20456;-92
2022/04/06 06:56:25;;;;;;;;;;;9.30;93.70;;;;;;2089129;28;19921;-91
2022/04/06 06:57:44;;;;;;;;;;;9.30;93.70;;;;;;2102836;28;19920;-90
2022/04/06 06:59:03;;;;;;;;;;;9.30;93.70;;;;;;2110629;28;19916;-90
2022/04/06 07:00:22;;;;;;;;;;;9.30;93.70;;;;;;2110241;28;19916;-91
2022/04/06 07:01:42;;;;;;;;;;;9.30;93.70;;;;;;2104892;28;19917;-91
2022/04/06 07:03:01;;;;;;;;;;;9.30;93.70;;;;;;2111972;28;19905;-90
2022/04/06 07:04:22;;;;;;;;;;;9.30;93.70;;;;;;2107824;28;19916;-92
2022/04/06 07:05:41;;;;;;;;;;;9.30;93.70;;;;;;2102066;28;20363;-92
2022/04/06 07:07:01;;;;;;;;;;;9.40;93.70;;;;;;2100208;28;19912;-93
2022/04/06 07:08:20;;;;;;;;;;;9.40;93.70;;;;;;2102591;28;20014;-93
2022/04/06 07:09:39;;;;;;;;;;;9.40;93.70;;;;;;2091272;28;19960;-92
2022/04/06 07:10:59;;;;;;;;;;;9.40;93.70;;;;;;2097890;28;19905;-87
2022/04/06 07:12:18;;;;;;;;;;;9.40;93.70;;;;;;2107928;28;20418;-91
2022/04/06 07:13:37;;;;;;;;;;;9.40;93.60;;;;;;2093526;28;20516;-92
2022/04/06 07:14:57;;;;;;;;;;;9.40;93.60;;;;;;2085315;28;19917;-93
2022/04/06 07:16:16;;;;;;;;;;;9.50;93.60;;;;;;2098230;28;19917;-91
2022/04/06 07:17:35;;;;;;;;;;;9.50;93.60;;;;;;2105438;28;19920;-91
2022/04/06 07:18:54;;;;;;;;;;;9.50;93.60;;;;;;2097131;28;19924;-93
2022/04/06 07:20:14;;;;;;;;;;;9.50;93.60;;;;;;2091753;28;19994;-91
2022/04/06 07:21:33;;;;;;;;;;;9.50;93.50;;;;;;2099151;28;19920;-93
2022/04/06 07:22:52;;;;;;;;;;;9.50;93.50;;;;;;2103405;28;19916;-91
2022/04/06 07:24:12;;;;;;;;;;;9.50;93.40;;;;;;2100240;28;19916;-91
2022/04/06 07:25:31;;;;;;;;;;;9.50;93.40;;;;;;2088302;28;19917;-91
2022/04/06 07:26:50;;;;;;;;;;;9.60;93.30;;;;;;2083873;28;20375;-92
2022/04/06 07:28:09;;;;;;;;;;;9.60;93.30;;;;;;2088986;28;19925;-91
2022/04/06 07:29:28;;;;;;;;;;;9.60;93.40;;;;;;2094865;28;19916;-90
2022/04/06 07:30:47;;;;;;;;;;;9.60;93.30;;;;;;2097647;28;19917;-93
2022/04/06 07:32:07;;;;;;;;;;;9.60;93.30;;;;;;2095148;28;19913;-91
2022/04/06 07:33:26;;;;;;;;;;;9.60;93.30;;;;;;2089911;28;19999;-91
2022/04/06 07:34:45;;;;;;;;;;;9.60;93.20;;;;;;2086185;28;19924;-93
2022/04/06 07:36:05;;;;;;;;;;;9.60;93.20;;;;;;2085579;28;19917;-92
2022/04/06 07:37:24;;;;;;;;;;;9.60;93.20;;;;;;2081815;28;19929;-92
2022/04/06 07:38:44;;;;;;;;;;;9.70;93.20;;;;;;2093381;28;19916;-92
2022/04/06 07:40:04;;;;;;;;;;;9.60;93.20;;;;;;2102387;28;19920;-90
2022/04/06 07:41:25;;;;;;;;;;;9.70;93.20;;;;;;2100907;28;20347;-91
2022/04/06 07:42:46;;;;;;;;;;;9.70;93.10;;;;;;2090954;28;19956;-89
2022/04/06 07:44:06;;;;;;;;;;;9.70;93.10;;;;;;2100408;28;19916;-89
2022/04/06 07:45:25;;;;;;;;;;;9.70;93.00;;;;;;2104189;28;19916;-89
2022/04/06 07:46:45;;;;;;;;;;;9.70;92.90;;;;;;2086188;28;20379;-89
2022/04/06 07:48:04;;;;;;;;;;;9.70;93.00;;;;;;2082414;28;19929;-89
2022/04/06 07:49:23;;;;;;;;;;;9.70;92.90;;;;;;2090560;28;19916;-89
2022/04/06 07:50:43;;;;;;;;;;;9.70;92.80;;;;;;2094005;28;19917;-88
2022/04/06 07:52:02;;;;;;;;;;;9.70;92.90;;;;;;2091838;28;20011;-90
2022/04/06 07:53:21;;;;;;;;;;;9.70;92.70;;;;;;2090556;28;19917;-89
2022/04/06 07:54:40;;;;;;;;;;;9.70;92.70;;;;;;2088685;28;19924;-89
2022/04/06 07:55:59;;;;;;;;;;;9.70;92.80;;;;;;2091264;28;19917;-90